sensor_id;sensor_type;location;lat;lon;timestamp;P1;durP1;ratioP1;P2;durP2;ratioP2
74833;SDS011;63361;52.384;20.930;2022-09-17T00:00:43;11.02;;;4.28;;
74833;SDS011;63361;52.384;20.930;2022-09-17T00:03:10;7.97;;;3.80;;
74833;SDS011;63361;52.384;20.930;2022-09-17T00:05:36;6.80;;;3.90;;
74833;SDS011;63361;52.384;20.930;2022-09-17T00:08:02;6.88;;;3.47;;
74833;SDS011;63361;52.384;20.930;2022-09-17T00:10:30;9.13;;;3.87;;
74833;SDS011;63361;52.384;20.930;2022-09-17T00:12:56;6.75;;;3.40;;
74833;SDS011;63361;52.384;20.930;2022-09-17T00:15:22;6.57;;;3.70;;
74833;SDS011;63361;52.384;20.930;2022-09-17T00:17:52;7.30;;;3.30;;
74833;SDS011;63361;52.384;20.930;2022-09-17T00:20:19;6.30;;;3.50;;
74833;SDS011;63361;52.384;20.930;2022-09-17T00:22:45;6.80;;;3.30;;
74833;SDS011;63361;52.384;20.930;2022-09-17T00:25:11;8.30;;;3.80;;
74833;SDS011;63361;52.384;20.930;2022-09-17T00:27:36;7.00;;;3.50;;
74833;SDS011;63361;52.384;20.930;2022-09-17T00:30:02;6.22;;;3.33;;
74833;SDS011;63361;52.384;20.930;2022-09-17T00:32:27;8.93;;;3.80;;
74833;SDS011;63361;52.384;20.930;2022-09-17T00:34:53;7.65;;;3.72;;
74833;SDS011;63361;52.384;20.930;2022-09-17T00:37:19;6.57;;;3.40;;
74833;SDS011;63361;52.384;20.930;2022-09-17T00:39:45;6.63;;;3.72;;
74833;SDS011;63361;52.384;20.930;2022-09-17T00:42:14;6.33;;;3.40;;
74833;SDS011;63361;52.384;20.930;2022-09-17T00:49:40;6.83;;;3.53;;
74833;SDS011;63361;52.384;20.930;2022-09-17T00:52:10;8.48;;;3.33;;
74833;SDS011;63361;52.384;20.930;2022-09-17T00:54:40;5.63;;;3.22;;
74833;SDS011;63361;52.384;20.930;2022-09-17T00:57:10;7.18;;;3.80;;
74833;SDS011;63361;52.384;20.930;2022-09-17T00:59:36;7.63;;;3.80;;
74833;SDS011;63361;52.384;20.930;2022-09-17T01:02:01;5.93;;;2.97;;
74833;SDS011;63361;52.384;20.930;2022-09-17T01:04:28;7.13;;;3.45;;
74833;SDS011;63361;52.384;20.930;2022-09-17T01:09:22;9.40;;;3.20;;
74833;SDS011;63361;52.384;20.930;2022-09-17T01:17:27;6.28;;;3.28;;
74833;SDS011;63361;52.384;20.930;2022-09-17T01:22:27;7.72;;;3.58;;
74833;SDS011;63361;52.384;20.930;2022-09-17T01:39:11;10.35;;;4.03;;
74833;SDS011;63361;52.384;20.930;2022-09-17T01:41:40;8.37;;;4.17;;
74833;SDS011;63361;52.384;20.930;2022-09-17T01:46:57;8.60;;;3.88;;
74833;SDS011;63361;52.384;20.930;2022-09-17T01:49:29;7.50;;;4.20;;
74833;SDS011;63361;52.384;20.930;2022-09-17T01:51:56;7.53;;;4.18;;
74833;SDS011;63361;52.384;20.930;2022-09-17T01:54:26;8.30;;;4.20;;
74833;SDS011;63361;52.384;20.930;2022-09-17T01:57:11;7.60;;;4.13;;
74833;SDS011;63361;52.384;20.930;2022-09-17T01:59:53;7.55;;;3.90;;
74833;SDS011;63361;52.384;20.930;2022-09-17T02:02:31;9.77;;;4.47;;
74833;SDS011;63361;52.384;20.930;2022-09-17T02:05:03;12.85;;;5.10;;
74833;SDS011;63361;52.384;20.930;2022-09-17T02:07:33;7.70;;;4.77;;
74833;SDS011;63361;52.384;20.930;2022-09-17T02:10:07;8.82;;;4.10;;
74833;SDS011;63361;52.384;20.930;2022-09-17T02:12:47;13.00;;;4.28;;
74833;SDS011;63361;52.384;20.930;2022-09-17T02:15:22;7.95;;;3.92;;
74833;SDS011;63361;52.384;20.930;2022-09-17T02:17:52;7.75;;;3.55;;
74833;SDS011;63361;52.384;20.930;2022-09-17T02:20:44;7.40;;;4.00;;
74833;SDS011;63361;52.384;20.930;2022-09-17T02:23:15;8.57;;;4.60;;
74833;SDS011;63361;52.384;20.930;2022-09-17T02:25:52;8.70;;;4.20;;
74833;SDS011;63361;52.384;20.930;2022-09-17T02:28:34;9.80;;;4.22;;
74833;SDS011;63361;52.384;20.930;2022-09-17T02:31:03;7.40;;;3.70;;
74833;SDS011;63361;52.384;20.930;2022-09-17T02:33:29;8.27;;;4.20;;
74833;SDS011;63361;52.384;20.930;2022-09-17T02:35:57;10.40;;;4.03;;
74833;SDS011;63361;52.384;20.930;2022-09-17T02:38:26;8.00;;;4.10;;
74833;SDS011;63361;52.384;20.930;2022-09-17T02:41:15;5.40;;;3.28;;
74833;SDS011;63361;52.384;20.930;2022-09-17T02:56:56;7.07;;;3.67;;
74833;SDS011;63361;52.384;20.930;2022-09-17T02:59:30;6.80;;;3.47;;
74833;SDS011;63361;52.384;20.930;2022-09-17T03:02:12;10.30;;;3.80;;
74833;SDS011;63361;52.384;20.930;2022-09-17T03:04:46;10.23;;;4.28;;
74833;SDS011;63361;52.384;20.930;2022-09-17T03:07:13;7.93;;;3.90;;
74833;SDS011;63361;52.384;20.930;2022-09-17T03:09:40;7.63;;;4.03;;
74833;SDS011;63361;52.384;20.930;2022-09-17T03:12:07;9.27;;;4.13;;
74833;SDS011;63361;52.384;20.930;2022-09-17T03:14:33;8.35;;;3.88;;
74833;SDS011;63361;52.384;20.930;2022-09-17T03:16:59;8.45;;;4.22;;
74833;SDS011;63361;52.384;20.930;2022-09-17T03:19:24;11.63;;;4.47;;
74833;SDS011;63361;52.384;20.930;2022-09-17T03:21:51;8.00;;;4.25;;
74833;SDS011;63361;52.384;20.930;2022-09-17T03:24:17;10.67;;;4.40;;
74833;SDS011;63361;52.384;20.930;2022-09-17T03:26:43;10.03;;;5.03;;
74833;SDS011;63361;52.384;20.930;2022-09-17T03:29:08;6.57;;;3.95;;
74833;SDS011;63361;52.384;20.930;2022-09-17T03:31:34;6.67;;;3.83;;
74833;SDS011;63361;52.384;20.930;2022-09-17T03:33:59;11.47;;;4.30;;
74833;SDS011;63361;52.384;20.930;2022-09-17T03:36:24;9.07;;;4.30;;
74833;SDS011;63361;52.384;20.930;2022-09-17T03:38:54;7.22;;;3.90;;
74833;SDS011;63361;52.384;20.930;2022-09-17T03:41:20;12.20;;;4.17;;
74833;SDS011;63361;52.384;20.930;2022-09-17T03:43:45;9.05;;;4.03;;
74833;SDS011;63361;52.384;20.930;2022-09-17T03:46:11;10.80;;;4.53;;
74833;SDS011;63361;52.384;20.930;2022-09-17T03:48:36;7.07;;;4.20;;
74833;SDS011;63361;52.384;20.930;2022-09-17T03:51:03;8.25;;;3.97;;
74833;SDS011;63361;52.384;20.930;2022-09-17T03:53:30;7.75;;;4.00;;
74833;SDS011;63361;52.384;20.930;2022-09-17T03:55:57;8.03;;;4.17;;
74833;SDS011;63361;52.384;20.930;2022-09-17T03:58:26;8.23;;;3.92;;
74833;SDS011;63361;52.384;20.930;2022-09-17T04:00:52;10.82;;;4.30;;
74833;SDS011;63361;52.384;20.930;2022-09-17T04:03:19;8.32;;;3.80;;
74833;SDS011;63361;52.384;20.930;2022-09-17T04:05:45;9.30;;;4.30;;
74833;SDS011;63361;52.384;20.930;2022-09-17T04:08:11;8.93;;;4.10;;
74833;SDS011;63361;52.384;20.930;2022-09-17T04:10:36;12.43;;;4.93;;
74833;SDS011;63361;52.384;20.930;2022-09-17T04:13:02;13.63;;;5.03;;
74833;SDS011;63361;52.384;20.930;2022-09-17T04:15:27;10.50;;;4.38;;
74833;SDS011;63361;52.384;20.930;2022-09-17T04:17:56;9.50;;;4.17;;
74833;SDS011;63361;52.384;20.930;2022-09-17T04:20:23;9.45;;;4.50;;
74833;SDS011;63361;52.384;20.930;2022-09-17T04:22:49;8.90;;;4.50;;
74833;SDS011;63361;52.384;20.930;2022-09-17T04:25:14;9.80;;;4.73;;
74833;SDS011;63361;52.384;20.930;2022-09-17T04:27:40;11.40;;;4.70;;
74833;SDS011;63361;52.384;20.930;2022-09-17T04:30:05;8.77;;;4.30;;
74833;SDS011;63361;52.384;20.930;2022-09-17T04:32:31;10.43;;;4.50;;
74833;SDS011;63361;52.384;20.930;2022-09-17T04:34:57;9.07;;;4.35;;
74833;SDS011;63361;52.384;20.930;2022-09-17T04:37:23;8.53;;;4.60;;
74833;SDS011;63361;52.384;20.930;2022-09-17T04:39:49;12.40;;;4.47;;
74833;SDS011;63361;52.384;20.930;2022-09-17T04:42:15;12.27;;;4.68;;
74833;SDS011;63361;52.384;20.930;2022-09-17T04:44:41;10.50;;;4.47;;
74833;SDS011;63361;52.384;20.930;2022-09-17T04:47:06;10.07;;;4.37;;
74833;SDS011;63361;52.384;20.930;2022-09-17T04:49:31;9.90;;;4.53;;
74833;SDS011;63361;52.384;20.930;2022-09-17T04:51:57;10.90;;;4.75;;
74833;SDS011;63361;52.384;20.930;2022-09-17T04:54:22;7.87;;;4.47;;
74833;SDS011;63361;52.384;20.930;2022-09-17T04:56:48;6.57;;;3.70;;
74833;SDS011;63361;52.384;20.930;2022-09-17T04:59:14;8.20;;;3.20;;
74833;SDS011;63361;52.384;20.930;2022-09-17T05:01:39;6.93;;;2.90;;
74833;SDS011;63361;52.384;20.930;2022-09-17T05:04:06;8.52;;;2.45;;
74833;SDS011;63361;52.384;20.930;2022-09-17T05:06:31;7.10;;;3.00;;
74833;SDS011;63361;52.384;20.930;2022-09-17T05:08:57;6.72;;;2.38;;
74833;SDS011;63361;52.384;20.930;2022-09-17T05:11:22;6.37;;;2.30;;
74833;SDS011;63361;52.384;20.930;2022-09-17T05:13:48;4.68;;;2.40;;
74833;SDS011;63361;52.384;20.930;2022-09-17T05:16:13;4.27;;;2.33;;
74833;SDS011;63361;52.384;20.930;2022-09-17T05:18:39;8.37;;;2.43;;
74833;SDS011;63361;52.384;20.930;2022-09-17T05:21:04;7.43;;;2.33;;
74833;SDS011;63361;52.384;20.930;2022-09-17T05:23:30;8.18;;;2.30;;
74833;SDS011;63361;52.384;20.930;2022-09-17T05:25:58;6.63;;;2.00;;
74833;SDS011;63361;52.384;20.930;2022-09-17T05:28:25;5.05;;;2.38;;
74833;SDS011;63361;52.384;20.930;2022-09-17T05:30:50;4.83;;;1.90;;
74833;SDS011;63361;52.384;20.930;2022-09-17T05:33:16;5.43;;;2.10;;
74833;SDS011;63361;52.384;20.930;2022-09-17T05:35:43;4.20;;;1.87;;
74833;SDS011;63361;52.384;20.930;2022-09-17T05:38:09;5.82;;;1.85;;
74833;SDS011;63361;52.384;20.930;2022-09-17T05:40:35;6.18;;;2.20;;
74833;SDS011;63361;52.384;20.930;2022-09-17T05:43:03;5.87;;;2.00;;
74833;SDS011;63361;52.384;20.930;2022-09-17T05:45:34;10.30;;;2.38;;
74833;SDS011;63361;52.384;20.930;2022-09-17T05:48:00;4.85;;;1.90;;
74833;SDS011;63361;52.384;20.930;2022-09-17T05:50:27;5.15;;;1.88;;
74833;SDS011;63361;52.384;20.930;2022-09-17T05:52:53;4.70;;;2.03;;
74833;SDS011;63361;52.384;20.930;2022-09-17T05:55:19;4.43;;;2.07;;
74833;SDS011;63361;52.384;20.930;2022-09-17T05:57:47;7.03;;;2.08;;
74833;SDS011;63361;52.384;20.930;2022-09-17T06:00:13;4.72;;;2.20;;
74833;SDS011;63361;52.384;20.930;2022-09-17T06:02:40;5.05;;;2.25;;
74833;SDS011;63361;52.384;20.930;2022-09-17T06:05:05;5.30;;;1.90;;
74833;SDS011;63361;52.384;20.930;2022-09-17T06:07:31;5.82;;;1.80;;
74833;SDS011;63361;52.384;20.930;2022-09-17T06:09:59;4.37;;;2.00;;
74833;SDS011;63361;52.384;20.930;2022-09-17T06:12:25;4.65;;;1.98;;
74833;SDS011;63361;52.384;20.930;2022-09-17T06:14:50;5.60;;;2.00;;
74833;SDS011;63361;52.384;20.930;2022-09-17T06:17:16;4.23;;;1.73;;
74833;SDS011;63361;52.384;20.930;2022-09-17T06:19:41;4.03;;;1.70;;
74833;SDS011;63361;52.384;20.930;2022-09-17T06:22:06;5.97;;;1.90;;
74833;SDS011;63361;52.384;20.930;2022-09-17T06:24:32;4.43;;;1.53;;
74833;SDS011;63361;52.384;20.930;2022-09-17T06:26:57;6.40;;;1.70;;
74833;SDS011;63361;52.384;20.930;2022-09-17T06:29:23;8.40;;;2.40;;
74833;SDS011;63361;52.384;20.930;2022-09-17T06:31:48;5.10;;;1.90;;
74833;SDS011;63361;52.384;20.930;2022-09-17T06:34:14;5.23;;;1.70;;
74833;SDS011;63361;52.384;20.930;2022-09-17T06:36:40;4.10;;;1.80;;
74833;SDS011;63361;52.384;20.930;2022-09-17T06:39:05;5.33;;;2.00;;
74833;SDS011;63361;52.384;20.930;2022-09-17T06:41:31;8.00;;;2.20;;
74833;SDS011;63361;52.384;20.930;2022-09-17T06:43:57;4.43;;;1.50;;
74833;SDS011;63361;52.384;20.930;2022-09-17T06:46:23;7.37;;;2.17;;
74833;SDS011;63361;52.384;20.930;2022-09-17T06:48:48;5.37;;;1.80;;
74833;SDS011;63361;52.384;20.930;2022-09-17T06:51:13;3.85;;;1.45;;
74833;SDS011;63361;52.384;20.930;2022-09-17T06:53:39;6.17;;;2.10;;
74833;SDS011;63361;52.384;20.930;2022-09-17T06:56:06;4.07;;;1.80;;
74833;SDS011;63361;52.384;20.930;2022-09-17T06:58:36;6.60;;;1.90;;
74833;SDS011;63361;52.384;20.930;2022-09-17T07:01:02;7.68;;;2.47;;
74833;SDS011;63361;52.384;20.930;2022-09-17T07:03:29;3.90;;;1.73;;
74833;SDS011;63361;52.384;20.930;2022-09-17T07:05:56;7.72;;;2.13;;
74833;SDS011;63361;52.384;20.930;2022-09-17T07:08:22;6.35;;;1.77;;
74833;SDS011;63361;52.384;20.930;2022-09-17T07:10:48;4.13;;;1.67;;
74833;SDS011;63361;52.384;20.930;2022-09-17T07:13:13;4.80;;;1.73;;
74833;SDS011;63361;52.384;20.930;2022-09-17T07:15:39;4.50;;;1.57;;
74833;SDS011;63361;52.384;20.930;2022-09-17T07:18:08;5.93;;;1.83;;
74833;SDS011;63361;52.384;20.930;2022-09-17T07:20:35;4.15;;;1.70;;
74833;SDS011;63361;52.384;20.930;2022-09-17T07:23:00;4.83;;;1.90;;
74833;SDS011;63361;52.384;20.930;2022-09-17T07:25:26;5.22;;;1.73;;
74833;SDS011;63361;52.384;20.930;2022-09-17T07:27:52;4.97;;;2.00;;
74833;SDS011;63361;52.384;20.930;2022-09-17T07:30:18;4.70;;;1.95;;
74833;SDS011;63361;52.384;20.930;2022-09-17T07:32:44;5.80;;;2.03;;
74833;SDS011;63361;52.384;20.930;2022-09-17T07:35:10;6.93;;;2.30;;
74833;SDS011;63361;52.384;20.930;2022-09-17T07:37:36;6.70;;;2.20;;
74833;SDS011;63361;52.384;20.930;2022-09-17T07:40:02;5.83;;;2.07;;
74833;SDS011;63361;52.384;20.930;2022-09-17T07:42:30;5.30;;;2.25;;
74833;SDS011;63361;52.384;20.930;2022-09-17T07:44:57;5.88;;;2.33;;
74833;SDS011;63361;52.384;20.930;2022-09-17T07:47:22;6.13;;;2.40;;
74833;SDS011;63361;52.384;20.930;2022-09-17T07:49:48;7.00;;;2.20;;
74833;SDS011;63361;52.384;20.930;2022-09-17T07:52:13;5.03;;;2.00;;
74833;SDS011;63361;52.384;20.930;2022-09-17T07:54:39;6.70;;;2.97;;
74833;SDS011;63361;52.384;20.930;2022-09-17T07:57:04;6.33;;;2.43;;
74833;SDS011;63361;52.384;20.930;2022-09-17T07:59:30;6.32;;;2.42;;
74833;SDS011;63361;52.384;20.930;2022-09-17T08:01:55;5.63;;;2.57;;
74833;SDS011;63361;52.384;20.930;2022-09-17T08:04:21;7.97;;;2.47;;
74833;SDS011;63361;52.384;20.930;2022-09-17T08:06:46;9.23;;;3.10;;
74833;SDS011;63361;52.384;20.930;2022-09-17T08:09:13;6.40;;;2.70;;
74833;SDS011;63361;52.384;20.930;2022-09-17T08:11:39;7.77;;;2.50;;
74833;SDS011;63361;52.384;20.930;2022-09-17T08:14:06;7.75;;;2.38;;
74833;SDS011;63361;52.384;20.930;2022-09-17T08:16:33;7.20;;;2.67;;
74833;SDS011;63361;52.384;20.930;2022-09-17T08:18:59;6.57;;;2.40;;
74833;SDS011;63361;52.384;20.930;2022-09-17T08:21:25;4.55;;;2.25;;
74833;SDS011;63361;52.384;20.930;2022-09-17T08:23:51;5.00;;;2.50;;
74833;SDS011;63361;52.384;20.930;2022-09-17T08:26:17;5.65;;;2.15;;
74833;SDS011;63361;52.384;20.930;2022-09-17T08:28:47;5.90;;;2.20;;
74833;SDS011;63361;52.384;20.930;2022-09-17T08:31:15;5.97;;;2.20;;
74833;SDS011;63361;52.384;20.930;2022-09-17T08:33:43;5.28;;;2.25;;
74833;SDS011;63361;52.384;20.930;2022-09-17T08:36:09;4.00;;;1.70;;
74833;SDS011;63361;52.384;20.930;2022-09-17T08:38:37;4.60;;;1.90;;
74833;SDS011;63361;52.384;20.930;2022-09-17T08:43:28;4.97;;;2.20;;
74833;SDS011;63361;52.384;20.930;2022-09-17T08:45:57;3.83;;;1.50;;
74833;SDS011;63361;52.384;20.930;2022-09-17T08:48:29;4.57;;;1.85;;
74833;SDS011;63361;52.384;20.930;2022-09-17T08:51:15;5.90;;;1.93;;
74833;SDS011;63361;52.384;20.930;2022-09-17T08:53:57;5.75;;;2.17;;
74833;SDS011;63361;52.384;20.930;2022-09-17T08:56:34;3.63;;;1.52;;
74833;SDS011;63361;52.384;20.930;2022-09-17T08:59:03;3.88;;;1.70;;
74833;SDS011;63361;52.384;20.930;2022-09-17T09:06:57;3.40;;;1.60;;
74833;SDS011;63361;52.384;20.930;2022-09-17T09:09:39;5.43;;;1.70;;
74833;SDS011;63361;52.384;20.930;2022-09-17T09:12:17;4.70;;;1.48;;
74833;SDS011;63361;52.384;20.930;2022-09-17T09:14:57;4.70;;;1.65;;
74833;SDS011;63361;52.384;20.930;2022-09-17T09:17:27;4.40;;;1.70;;
74833;SDS011;63361;52.384;20.930;2022-09-17T09:20:39;4.95;;;1.63;;
74833;SDS011;63361;52.384;20.930;2022-09-17T09:23:04;4.70;;;1.70;;
74833;SDS011;63361;52.384;20.930;2022-09-17T09:25:41;4.25;;;1.42;;
74833;SDS011;63361;52.384;20.930;2022-09-17T09:31:59;3.77;;;1.73;;
74833;SDS011;63361;52.384;20.930;2022-09-17T09:34:09;4.78;;;1.33;;
74833;SDS011;63361;52.384;20.930;2022-09-17T09:36:37;5.10;;;1.45;;
74833;SDS011;63361;52.384;20.930;2022-09-17T09:44:23;5.20;;;2.75;;
74833;SDS011;63361;52.384;20.930;2022-09-17T09:57:48;5.38;;;2.17;;
74833;SDS011;63361;52.384;20.930;2022-09-17T10:00:36;4.70;;;1.30;;
74833;SDS011;63361;52.384;20.930;2022-09-17T10:03:17;4.68;;;1.55;;
74833;SDS011;63361;52.384;20.930;2022-09-17T10:08:25;3.58;;;1.30;;
74833;SDS011;63361;52.384;20.930;2022-09-17T10:13:29;3.67;;;1.27;;
74833;SDS011;63361;52.384;20.930;2022-09-17T10:16:15;3.03;;;1.25;;
74833;SDS011;63361;52.384;20.930;2022-09-17T10:18:42;2.37;;;1.07;;
74833;SDS011;63361;52.384;20.930;2022-09-17T10:21:18;4.55;;;1.30;;
74833;SDS011;63361;52.384;20.930;2022-09-17T10:23:46;3.83;;;1.20;;
74833;SDS011;63361;52.384;20.930;2022-09-17T10:26:45;5.60;;;1.20;;
74833;SDS011;63361;52.384;20.930;2022-09-17T10:29:04;3.77;;;1.10;;
74833;SDS011;63361;52.384;20.930;2022-09-17T10:34:33;4.40;;;1.10;;
74833;SDS011;63361;52.384;20.930;2022-09-17T10:36:59;3.33;;;0.90;;
74833;SDS011;63361;52.384;20.930;2022-09-17T10:41:53;4.30;;;1.30;;
74833;SDS011;63361;52.384;20.930;2022-09-17T10:44:21;5.47;;;1.65;;
74833;SDS011;63361;52.384;20.930;2022-09-17T10:46:48;3.72;;;1.33;;
74833;SDS011;63361;52.384;20.930;2022-09-17T10:49:35;5.40;;;1.90;;
74833;SDS011;63361;52.384;20.930;2022-09-17T10:54:57;6.70;;;2.45;;
74833;SDS011;63361;52.384;20.930;2022-09-17T11:09:02;6.47;;;2.60;;
74833;SDS011;63361;52.384;20.930;2022-09-17T11:12:03;5.13;;;2.33;;
74833;SDS011;63361;52.384;20.930;2022-09-17T11:25:55;3.15;;;1.00;;
74833;SDS011;63361;52.384;20.930;2022-09-17T11:39:47;3.70;;;1.30;;
74833;SDS011;63361;52.384;20.930;2022-09-17T11:42:20;2.70;;;1.10;;
74833;SDS011;63361;52.384;20.930;2022-09-17T11:44:55;3.57;;;1.40;;
74833;SDS011;63361;52.384;20.930;2022-09-17T11:50:36;2.70;;;1.02;;
74833;SDS011;63361;52.384;20.930;2022-09-17T11:56:01;2.28;;;0.90;;
74833;SDS011;63361;52.384;20.930;2022-09-17T12:01:54;2.45;;;1.00;;
74833;SDS011;63361;52.384;20.930;2022-09-17T12:04:00;2.40;;;0.93;;
74833;SDS011;63361;52.384;20.930;2022-09-17T12:06:36;2.83;;;1.23;;
74833;SDS011;63361;52.384;20.930;2022-09-17T12:09:30;3.42;;;1.30;;
74833;SDS011;63361;52.384;20.930;2022-09-17T12:12:05;3.07;;;0.97;;
74833;SDS011;63361;52.384;20.930;2022-09-17T12:17:19;4.55;;;1.00;;
74833;SDS011;63361;52.384;20.930;2022-09-17T12:19:53;3.25;;;1.10;;
74833;SDS011;63361;52.384;20.930;2022-09-17T12:24:59;6.53;;;1.57;;
74833;SDS011;63361;52.384;20.930;2022-09-17T12:33:39;3.22;;;1.40;;
74833;SDS011;63361;52.384;20.930;2022-09-17T12:41:28;4.70;;;1.80;;
74833;SDS011;63361;52.384;20.930;2022-09-17T12:44:31;4.30;;;1.55;;
74833;SDS011;63361;52.384;20.930;2022-09-17T12:50:09;3.28;;;1.40;;
74833;SDS011;63361;52.384;20.930;2022-09-17T13:01:12;2.78;;;1.27;;
74833;SDS011;63361;52.384;20.930;2022-09-17T13:03:41;3.53;;;1.20;;
74833;SDS011;63361;52.384;20.930;2022-09-17T13:15:14;3.35;;;1.30;;
74833;SDS011;63361;52.384;20.930;2022-09-17T13:17:50;3.10;;;1.50;;
74833;SDS011;63361;52.384;20.930;2022-09-17T13:20:30;4.80;;;1.63;;
74833;SDS011;63361;52.384;20.930;2022-09-17T13:23:01;4.30;;;1.83;;
74833;SDS011;63361;52.384;20.930;2022-09-17T13:25:28;3.50;;;1.40;;
74833;SDS011;63361;52.384;20.930;2022-09-17T13:28:05;5.50;;;1.77;;
74833;SDS011;63361;52.384;20.930;2022-09-17T13:39:04;4.00;;;1.80;;
74833;SDS011;63361;52.384;20.930;2022-09-17T13:41:32;4.93;;;1.77;;
74833;SDS011;63361;52.384;20.930;2022-09-17T13:44:01;4.60;;;1.70;;
74833;SDS011;63361;52.384;20.930;2022-09-17T13:46:29;4.32;;;1.90;;
74833;SDS011;63361;52.384;20.930;2022-09-17T13:49:02;6.18;;;1.80;;
74833;SDS011;63361;52.384;20.930;2022-09-17T13:54:01;5.07;;;2.00;;
74833;SDS011;63361;52.384;20.930;2022-09-17T13:59:15;5.77;;;1.67;;
74833;SDS011;63361;52.384;20.930;2022-09-17T14:06:57;4.00;;;1.70;;
74833;SDS011;63361;52.384;20.930;2022-09-17T14:09:34;5.40;;;1.73;;
74833;SDS011;63361;52.384;20.930;2022-09-17T14:13:16;3.07;;;1.23;;
74833;SDS011;63361;52.384;20.930;2022-09-17T14:20:52;3.63;;;1.60;;
74833;SDS011;63361;52.384;20.930;2022-09-17T14:23:41;4.28;;;1.83;;
74833;SDS011;63361;52.384;20.930;2022-09-17T14:26:11;3.90;;;1.70;;
74833;SDS011;63361;52.384;20.930;2022-09-17T14:31:21;6.53;;;2.35;;
74833;SDS011;63361;52.384;20.930;2022-09-17T14:33:51;7.10;;;2.30;;
74833;SDS011;63361;52.384;20.930;2022-09-17T14:36:19;4.95;;;1.83;;
74833;SDS011;63361;52.384;20.930;2022-09-17T14:38:47;6.20;;;2.37;;
74833;SDS011;63361;52.384;20.930;2022-09-17T14:41:20;5.95;;;2.25;;
74833;SDS011;63361;52.384;20.930;2022-09-17T14:44:12;4.75;;;1.95;;
74833;SDS011;63361;52.384;20.930;2022-09-17T14:49:23;3.72;;;1.23;;
74833;SDS011;63361;52.384;20.930;2022-09-17T14:51:51;3.33;;;1.60;;
74833;SDS011;63361;52.384;20.930;2022-09-17T14:54:24;4.13;;;1.45;;
74833;SDS011;63361;52.384;20.930;2022-09-17T14:59:21;3.22;;;1.33;;
74833;SDS011;63361;52.384;20.930;2022-09-17T15:01:51;5.30;;;1.55;;
74833;SDS011;63361;52.384;20.930;2022-09-17T15:04:19;3.93;;;1.87;;
74833;SDS011;63361;52.384;20.930;2022-09-17T15:06:46;3.72;;;1.85;;
74833;SDS011;63361;52.384;20.930;2022-09-17T15:09:22;4.07;;;1.90;;
74833;SDS011;63361;52.384;20.930;2022-09-17T15:11:51;4.20;;;2.08;;
74833;SDS011;63361;52.384;20.930;2022-09-17T15:14:26;4.68;;;2.30;;
74833;SDS011;63361;52.384;20.930;2022-09-17T15:16:54;4.53;;;2.13;;
74833;SDS011;63361;52.384;20.930;2022-09-17T15:19:38;6.43;;;2.50;;
74833;SDS011;63361;52.384;20.930;2022-09-17T15:22:07;4.25;;;2.55;;
74833;SDS011;63361;52.384;20.930;2022-09-17T15:29:56;5.90;;;2.20;;
74833;SDS011;63361;52.384;20.930;2022-09-17T15:32:51;7.13;;;2.87;;
74833;SDS011;63361;52.384;20.930;2022-09-17T15:37:51;7.00;;;3.10;;
74833;SDS011;63361;52.384;20.930;2022-09-17T15:43:17;6.68;;;2.90;;
74833;SDS011;63361;52.384;20.930;2022-09-17T15:45:46;6.72;;;2.90;;
74833;SDS011;63361;52.384;20.930;2022-09-17T15:50:53;5.32;;;3.42;;
74833;SDS011;63361;52.384;20.930;2022-09-17T16:08:49;7.80;;;4.13;;
74833;SDS011;63361;52.384;20.930;2022-09-17T16:11:17;8.32;;;4.07;;
74833;SDS011;63361;52.384;20.930;2022-09-17T16:13:48;9.50;;;3.85;;
74833;SDS011;63361;52.384;20.930;2022-09-17T16:16:15;8.00;;;4.38;;
74833;SDS011;63361;52.384;20.930;2022-09-17T16:18:42;7.40;;;4.20;;
74833;SDS011;63361;52.384;20.930;2022-09-17T16:21:09;10.32;;;5.10;;
74833;SDS011;63361;52.384;20.930;2022-09-17T16:23:35;8.90;;;4.10;;
74833;SDS011;63361;52.384;20.930;2022-09-17T16:26:01;6.40;;;3.47;;
74833;SDS011;63361;52.384;20.930;2022-09-17T16:28:27;6.68;;;3.33;;
74833;SDS011;63361;52.384;20.930;2022-09-17T16:30:53;6.22;;;3.75;;
74833;SDS011;63361;52.384;20.930;2022-09-17T16:33:19;6.70;;;3.90;;
74833;SDS011;63361;52.384;20.930;2022-09-17T16:35:44;7.30;;;4.23;;
74833;SDS011;63361;52.384;20.930;2022-09-17T16:38:10;8.95;;;4.60;;
74833;SDS011;63361;52.384;20.930;2022-09-17T16:40:40;7.13;;;4.20;;
74833;SDS011;63361;52.384;20.930;2022-09-17T16:43:07;8.60;;;4.97;;
74833;SDS011;63361;52.384;20.930;2022-09-17T16:45:33;14.90;;;8.10;;
74833;SDS011;63361;52.384;20.930;2022-09-17T16:47:59;129.75;;;63.67;;
74833;SDS011;63361;52.384;20.930;2022-09-17T16:50:24;376.83;;;207.03;;
74833;SDS011;63361;52.384;20.930;2022-09-17T16:52:52;269.55;;;138.13;;
74833;SDS011;63361;52.384;20.930;2022-09-17T16:55:18;75.60;;;39.13;;
74833;SDS011;63361;52.384;20.930;2022-09-17T16:57:44;119.13;;;59.95;;
74833;SDS011;63361;52.384;20.930;2022-09-17T17:00:11;135.20;;;68.38;;
74833;SDS011;63361;52.384;20.930;2022-09-17T17:02:41;144.47;;;74.87;;
74833;SDS011;63361;52.384;20.930;2022-09-17T17:05:08;142.45;;;73.50;;
74833;SDS011;63361;52.384;20.930;2022-09-17T17:07:35;105.32;;;55.75;;
74833;SDS011;63361;52.384;20.930;2022-09-17T17:10:01;94.28;;;53.60;;
74833;SDS011;63361;52.384;20.930;2022-09-17T17:12:32;137.90;;;90.55;;
74833;SDS011;63361;52.384;20.930;2022-09-17T17:14:58;102.47;;;58.63;;
74833;SDS011;63361;52.384;20.930;2022-09-17T17:17:25;73.28;;;43.35;;
74833;SDS011;63361;52.384;20.930;2022-09-17T17:19:50;78.73;;;47.87;;
74833;SDS011;63361;52.384;20.930;2022-09-17T17:22:17;91.35;;;48.50;;
74833;SDS011;63361;52.384;20.930;2022-09-17T17:24:42;97.43;;;54.80;;
74833;SDS011;63361;52.384;20.930;2022-09-17T17:27:07;111.15;;;61.15;;
74833;SDS011;63361;52.384;20.930;2022-09-17T17:29:33;148.53;;;79.10;;
74833;SDS011;63361;52.384;20.930;2022-09-17T17:32:00;118.43;;;65.82;;
74833;SDS011;63361;52.384;20.930;2022-09-17T17:34:28;85.75;;;46.25;;
74833;SDS011;63361;52.384;20.930;2022-09-17T17:36:55;65.13;;;37.30;;
74833;SDS011;63361;52.384;20.930;2022-09-17T17:39:21;45.43;;;24.83;;
74833;SDS011;63361;52.384;20.930;2022-09-17T17:41:47;68.18;;;36.63;;
74833;SDS011;63361;52.384;20.930;2022-09-17T17:44:12;43.80;;;24.17;;
74833;SDS011;63361;52.384;20.930;2022-09-17T17:46:38;57.40;;;28.10;;
74833;SDS011;63361;52.384;20.930;2022-09-17T17:49:05;77.60;;;36.47;;
74833;SDS011;63361;52.384;20.930;2022-09-17T17:51:30;234.43;;;112.38;;
74833;SDS011;63361;52.384;20.930;2022-09-17T17:53:56;227.13;;;103.22;;
74833;SDS011;63361;52.384;20.930;2022-09-17T17:56:22;238.30;;;107.17;;
74833;SDS011;63361;52.384;20.930;2022-09-17T17:58:47;182.80;;;84.93;;
74833;SDS011;63361;52.384;20.930;2022-09-17T18:01:19;177.48;;;82.90;;
74833;SDS011;63361;52.384;20.930;2022-09-17T18:03:56;151.57;;;71.68;;
74833;SDS011;63361;52.384;20.930;2022-09-17T18:06:23;106.97;;;56.17;;
74833;SDS011;63361;52.384;20.930;2022-09-17T18:08:50;98.67;;;46.47;;
74833;SDS011;63361;52.384;20.930;2022-09-17T18:11:15;57.35;;;33.20;;
74833;SDS011;63361;52.384;20.930;2022-09-17T18:13:40;66.37;;;34.13;;
74833;SDS011;63361;52.384;20.930;2022-09-17T18:16:06;53.20;;;28.13;;
74833;SDS011;63361;52.384;20.930;2022-09-17T18:18:38;38.10;;;24.08;;
74833;SDS011;63361;52.384;20.930;2022-09-17T18:21:07;47.67;;;31.55;;
74833;SDS011;63361;52.384;20.930;2022-09-17T18:23:35;43.78;;;26.50;;
74833;SDS011;63361;52.384;20.930;2022-09-17T18:26:02;36.77;;;22.23;;
74833;SDS011;63361;52.384;20.930;2022-09-17T18:28:29;39.50;;;24.45;;